sensor_id;sensor_type;location;lat;lon;timestamp;temperature;humidity
20773;DHT22;10546;50.674;4.616;2023-10-08T06:14:16;14.50;99.90
20773;DHT22;10546;50.674;4.616;2023-10-08T06:17:11;14.60;99.90
20773;DHT22;10546;50.674;4.616;2023-10-08T06:19:53;14.70;99.90
20773;DHT22;10546;50.674;4.616;2023-10-08T06:22:33;14.60;99.90
20773;DHT22;10546;50.674;4.616;2023-10-08T06:25:17;14.70;99.90
20773;DHT22;10546;50.674;4.616;2023-10-08T06:31:12;14.60;99.90
20773;DHT22;10546;50.674;4.616;2023-10-08T06:33:43;14.80;99.90
20773;DHT22;10546;50.674;4.616;2023-10-08T06:36:12;15.00;99.90
20773;DHT22;10546;50.674;4.616;2023-10-08T06:38:43;15.00;99.90
20773;DHT22;10546;50.674;4.616;2023-10-08T06:41:10;15.10;99.90
20773;DHT22;10546;50.674;4.616;2023-10-08T06:44:01;15.10;99.90
20773;DHT22;10546;50.674;4.616;2023-10-08T06:46:34;15.20;99.90
20773;DHT22;10546;50.674;4.616;2023-10-08T06:49:08;15.40;99.90
20773;DHT22;10546;50.674;4.616;2023-10-08T06:51:41;15.50;99.90
20773;DHT22;10546;50.674;4.616;2023-10-08T06:54:12;15.80;99.90
20773;DHT22;10546;50.674;4.616;2023-10-08T07:00:48;16.30;99.90
20773;DHT22;10546;50.674;4.616;2023-10-08T07:03:38;16.50;99.90
20773;DHT22;10546;50.674;4.616;2023-10-08T07:06:07;16.80;99.90
20773;DHT22;10546;50.674;4.616;2023-10-08T07:12:28;17.10;99.90
20773;DHT22;10546;50.674;4.616;2023-10-08T07:15:12;17.10;99.90
20773;DHT22;10546;50.674;4.616;2023-10-08T07:17:39;17.10;99.90
20773;DHT22;10546;50.674;4.616;2023-10-08T07:20:09;17.20;99.90
20773;DHT22;10546;50.674;4.616;2023-10-08T07:22:41;17.10;99.90
20773;DHT22;10546;50.674;4.616;2023-10-08T07:25:14;17.30;99.90
20773;DHT22;10546;50.674;4.616;2023-10-08T07:31:53;18.00;99.90
20773;DHT22;10546;50.674;4.616;2023-10-08T07:44:55;19.00;99.90
20773;DHT22;10546;50.674;4.616;2023-10-08T07:47:24;19.50;99.90
20773;DHT22;10546;50.674;4.616;2023-10-08T07:53:08;20.00;99.90
20773;DHT22;10546;50.674;4.616;2023-10-08T07:56:12;19.60;99.90
20773;DHT22;10546;50.674;4.616;2023-10-08T08:01:58;19.50;99.90
20773;DHT22;10546;50.674;4.616;2023-10-08T08:04:36;19.30;99.90
20773;DHT22;10546;50.674;4.616;2023-10-08T08:07:29;19.20;99.90
20773;DHT22;10546;50.674;4.616;2023-10-08T08:23:51;19.20;99.90
20773;DHT22;10546;50.674;4.616;2023-10-08T08:26:31;19.20;99.90
20773;DHT22;10546;50.674;4.616;2023-10-08T08:29:22;19.50;99.90
20773;DHT22;10546;50.674;4.616;2023-10-08T08:31:51;19.70;99.90
20773;DHT22;10546;50.674;4.616;2023-10-08T08:34:43;19.70;99.90
20773;DHT22;10546;50.674;4.616;2023-10-08T08:37:30;19.80;99.90
20773;DHT22;10546;50.674;4.616;2023-10-08T08:40:30;19.70;99.90
20773;DHT22;10546;50.674;4.616;2023-10-08T08:43:27;19.70;99.90
20773;DHT22;10546;50.674;4.616;2023-10-08T08:46:11;19.70;99.90
20773;DHT22;10546;50.674;4.616;2023-10-08T08:48:46;19.70;99.90
20773;DHT22;10546;50.674;4.616;2023-10-08T08:51:58;19.70;99.90
20773;DHT22;10546;50.674;4.616;2023-10-08T08:54:28;19.60;99.90
20773;DHT22;10546;50.674;4.616;2023-10-08T08:57:04;19.60;99.90
20773;DHT22;10546;50.674;4.616;2023-10-08T09:03:01;19.90;99.90
20773;DHT22;10546;50.674;4.616;2023-10-08T09:05:47;20.10;99.90
20773;DHT22;10546;50.674;4.616;2023-10-08T09:08:18;20.20;99.90
20773;DHT22;10546;50.674;4.616;2023-10-08T09:11:16;20.40;99.90
20773;DHT22;10546;50.674;4.616;2023-10-08T09:13:46;20.60;99.90
20773;DHT22;10546;50.674;4.616;2023-10-08T09:16:24;20.70;99.90
20773;DHT22;10546;50.674;4.616;2023-10-08T09:18:58;21.10;99.90
20773;DHT22;10546;50.674;4.616;2023-10-08T09:21:29;21.30;99.90
20773;DHT22;10546;50.674;4.616;2023-10-08T09:23:58;21.60;99.90
20773;DHT22;10546;50.674;4.616;2023-10-08T09:26:30;21.90;99.90
20773;DHT22;10546;50.674;4.616;2023-10-08T09:35:31;23.00;99.90
20773;DHT22;10546;50.674;4.616;2023-10-08T09:38:11;22.80;99.90
20773;DHT22;10546;50.674;4.616;2023-10-08T09:44:30;23.10;99.90
20773;DHT22;10546;50.674;4.616;2023-10-08T09:47:19;23.80;99.90
20773;DHT22;10546;50.674;4.616;2023-10-08T09:50:09;24.60;99.90
20773;DHT22;10546;50.674;4.616;2023-10-08T09:55:23;26.30;99.90
20773;DHT22;10546;50.674;4.616;2023-10-08T09:57:57;26.60;99.90
20773;DHT22;10546;50.674;4.616;2023-10-08T10:00:34;26.80;99.90
20773;DHT22;10546;50.674;4.616;2023-10-08T10:03:06;27.00;99.90
20773;DHT22;10546;50.674;4.616;2023-10-08T10:24:21;27.80;99.90
20773;DHT22;10546;50.674;4.616;2023-10-08T10:42:11;27.80;99.90
20773;DHT22;10546;50.674;4.616;2023-10-08T10:45:38;27.80;99.90
20773;DHT22;10546;50.674;4.616;2023-10-08T10:49:09;27.40;99.90
20773;DHT22;10546;50.674;4.616;2023-10-08T10:52:58;27.90;99.90
20773;DHT22;10546;50.674;4.616;2023-10-08T10:59:32;27.80;99.90
20773;DHT22;10546;50.674;4.616;2023-10-08T11:16:05;27.60;99.90
20773;DHT22;10546;50.674;4.616;2023-10-08T11:19:38;27.50;99.90
20773;DHT22;10546;50.674;4.616;2023-10-08T11:22:39;27.30;99.90
20773;DHT22;10546;50.674;4.616;2023-10-08T11:25:57;26.90;99.90
20773;DHT22;10546;50.674;4.616;2023-10-08T11:37:57;26.30;99.90
20773;DHT22;10546;50.674;4.616;2023-10-08T11:40:54;26.00;99.90
20773;DHT22;10546;50.674;4.616;2023-10-08T11:43:56;25.90;99.90
20773;DHT22;10546;50.674;4.616;2023-10-08T11:46:41;26.10;99.90
20773;DHT22;10546;50.674;4.616;2023-10-08T11:54:46;25.60;99.90
20773;DHT22;10546;50.674;4.616;2023-10-08T11:57:34;25.70;99.90
20773;DHT22;10546;50.674;4.616;2023-10-08T12:00:57;25.80;99.90
20773;DHT22;10546;50.674;4.616;2023-10-08T12:04:16;25.60;99.90
20773;DHT22;10546;50.674;4.616;2023-10-08T12:07:26;25.70;99.90
20773;DHT22;10546;50.674;4.616;2023-10-08T12:10:10;25.70;99.90
20773;DHT22;10546;50.674;4.616;2023-10-08T12:12:45;25.80;99.90
20773;DHT22;10546;50.674;4.616;2023-10-08T12:18:37;25.40;99.90
20773;DHT22;10546;50.674;4.616;2023-10-08T12:21:44;25.60;99.90
20773;DHT22;10546;50.674;4.616;2023-10-08T13:03:43;25.90;99.90
20773;DHT22;10546;50.674;4.616;2023-10-08T13:06:29;25.90;99.90
20773;DHT22;10546;50.674;4.616;2023-10-08T13:09:01;25.80;99.90
20773;DHT22;10546;50.674;4.616;2023-10-08T13:11:33;25.70;99.90
20773;DHT22;10546;50.674;4.616;2023-10-08T13:17:06;25.60;99.90
20773;DHT22;10546;50.674;4.616;2023-10-08T13:19:36;25.60;99.90
20773;DHT22;10546;50.674;4.616;2023-10-08T13:22:03;25.70;99.90
20773;DHT22;10546;50.674;4.616;2023-10-08T13:24:34;25.80;99.90
20773;DHT22;10546;50.674;4.616;2023-10-08T13:27:01;25.80;99.90
20773;DHT22;10546;50.674;4.616;2023-10-08T13:29:27;25.50;99.90
20773;DHT22;10546;50.674;4.616;2023-10-08T13:32:01;25.60;99.90
20773;DHT22;10546;50.674;4.616;2023-10-08T13:34:28;25.70;99.90
20773;DHT22;10546;50.674;4.616;2023-10-08T13:36:53;25.80;99.90
20773;DHT22;10546;50.674;4.616;2023-10-08T13:39:20;25.90;99.90
20773;DHT22;10546;50.674;4.616;2023-10-08T13:41:46;26.10;99.90
20773;DHT22;10546;50.674;4.616;2023-10-08T13:44:17;26.20;99.90
20773;DHT22;10546;50.674;4.616;2023-10-08T13:46:44;26.00;99.90
20773;DHT22;10546;50.674;4.616;2023-10-08T13:49:16;25.90;99.90
20773;DHT22;10546;50.674;4.616;2023-10-08T13:51:43;25.80;99.90
20773;DHT22;10546;50.674;4.616;2023-10-08T13:54:12;25.70;99.90
20773;DHT22;10546;50.674;4.616;2023-10-08T13:56:39;25.60;99.90
20773;DHT22;10546;50.674;4.616;2023-10-08T13:59:15;25.50;99.90
20773;DHT22;10546;50.674;4.616;2023-10-08T14:02:21;25.50;99.90
20773;DHT22;10546;50.674;4.616;2023-10-08T14:05:05;25.40;99.90
20773;DHT22;10546;50.674;4.616;2023-10-08T14:07:37;25.40;99.90
20773;DHT22;10546;50.674;4.616;2023-10-08T14:10:04;25.40;99.90
20773;DHT22;10546;50.674;4.616;2023-10-08T14:12:34;25.40;99.90
20773;DHT22;10546;50.674;4.616;2023-10-08T14:15:01;25.40;99.90
20773;DHT22;10546;50.674;4.616;2023-10-08T14:17:32;25.20;99.90
20773;DHT22;10546;50.674;4.616;2023-10-08T14:20:14;25.20;99.90
20773;DHT22;10546;50.674;4.616;2023-10-08T14:22:41;25.20;99.90
20773;DHT22;10546;50.674;4.616;2023-10-08T14:25:10;25.10;99.90
20773;DHT22;10546;50.674;4.616;2023-10-08T14:27:40;25.30;99.90
20773;DHT22;10546;50.674;4.616;2023-10-08T14:30:09;25.10;99.90
20773;DHT22;10546;50.674;4.616;2023-10-08T14:32:46;25.00;99.90
20773;DHT22;10546;50.674;4.616;2023-10-08T14:35:13;24.80;99.90
20773;DHT22;10546;50.674;4.616;2023-10-08T14:37:57;24.80;99.90
20773;DHT22;10546;50.674;4.616;2023-10-08T14:40:41;24.80;99.90
20773;DHT22;10546;50.674;4.616;2023-10-08T14:43:36;24.80;99.90
20773;DHT22;10546;50.674;4.616;2023-10-08T14:46:03;24.70;99.90
20773;DHT22;10546;50.674;4.616;2023-10-08T14:48:32;24.80;99.90
20773;DHT22;10546;50.674;4.616;2023-10-08T14:51:03;24.70;99.90
20773;DHT22;10546;50.674;4.616;2023-10-08T14:53:32;24.90;99.90
20773;DHT22;10546;50.674;4.616;2023-10-08T14:56:00;25.00;99.90
20773;DHT22;10546;50.674;4.616;2023-10-08T14:58:29;25.00;99.90
20773;DHT22;10546;50.674;4.616;2023-10-08T15:00:56;24.90;99.90
20773;DHT22;10546;50.674;4.616;2023-10-08T15:03:22;24.80;99.90
20773;DHT22;10546;50.674;4.616;2023-10-08T15:05:48;24.70;99.90
20773;DHT22;10546;50.674;4.616;2023-10-08T15:08:15;24.70;99.90
20773;DHT22;10546;50.674;4.616;2023-10-08T15:10:44;24.70;99.90
20773;DHT22;10546;50.674;4.616;2023-10-08T15:13:17;24.60;99.90
20773;DHT22;10546;50.674;4.616;2023-10-08T15:15:45;24.30;99.90
20773;DHT22;10546;50.674;4.616;2023-10-08T15:18:12;24.30;99.90
20773;DHT22;10546;50.674;4.616;2023-10-08T15:20:44;24.40;99.90
20773;DHT22;10546;50.674;4.616;2023-10-08T15:23:33;24.40;99.90
20773;DHT22;10546;50.674;4.616;2023-10-08T15:26:32;24.40;99.90
20773;DHT22;10546;50.674;4.616;2023-10-08T15:29:30;24.30;99.90
20773;DHT22;10546;50.674;4.616;2023-10-08T15:32:19;24.20;99.90
20773;DHT22;10546;50.674;4.616;2023-10-08T15:38:14;24.30;99.90
20773;DHT22;10546;50.674;4.616;2023-10-08T15:40:49;24.30;99.90
20773;DHT22;10546;50.674;4.616;2023-10-08T15:43:40;24.30;99.90
20773;DHT22;10546;50.674;4.616;2023-10-08T15:46:10;24.30;99.90
20773;DHT22;10546;50.674;4.616;2023-10-08T15:48:37;24.20;99.90
20773;DHT22;10546;50.674;4.616;2023-10-08T15:51:03;24.10;99.90
20773;DHT22;10546;50.674;4.616;2023-10-08T15:53:28;24.20;99.90
20773;DHT22;10546;50.674;4.616;2023-10-08T15:55:56;24.20;99.90
20773;DHT22;10546;50.674;4.616;2023-10-08T15:58:22;24.20;99.90
20773;DHT22;10546;50.674;4.616;2023-10-08T16:00:48;24.30;99.90
20773;DHT22;10546;50.674;4.616;2023-10-08T16:03:13;24.20;99.90
20773;DHT22;10546;50.674;4.616;2023-10-08T16:05:46;24.10;99.90
20773;DHT22;10546;50.674;4.616;2023-10-08T16:08:16;24.00;99.90
20773;DHT22;10546;50.674;4.616;2023-10-08T16:10:41;23.90;99.90
20773;DHT22;10546;50.674;4.616;2023-10-08T16:13:07;24.00;99.90
20773;DHT22;10546;50.674;4.616;2023-10-08T16:15:34;23.90;99.90
20773;DHT22;10546;50.674;4.616;2023-10-08T16:18:00;23.90;99.90
20773;DHT22;10546;50.674;4.616;2023-10-08T16:20:28;23.80;99.90
20773;DHT22;10546;50.674;4.616;2023-10-08T16:22:56;23.80;99.90
20773;DHT22;10546;50.674;4.616;2023-10-08T16:25:21;23.70;99.90
20773;DHT22;10546;50.674;4.616;2023-10-08T16:27:50;23.60;99.90
20773;DHT22;10546;50.674;4.616;2023-10-08T16:30:24;23.60;99.90
20773;DHT22;10546;50.674;4.616;2023-10-08T16:32:56;23.50;99.90
20773;DHT22;10546;50.674;4.616;2023-10-08T16:35:23;23.40;99.90
20773;DHT22;10546;50.674;4.616;2023-10-08T16:37:52;23.30;99.90
20773;DHT22;10546;50.674;4.616;2023-10-08T16:40:18;23.20;99.90
20773;DHT22;10546;50.674;4.616;2023-10-08T16:42:47;23.20;99.90
20773;DHT22;10546;50.674;4.616;2023-10-08T16:45:14;23.20;99.90
20773;DHT22;10546;50.674;4.616;2023-10-08T16:47:47;23.10;99.90
20773;DHT22;10546;50.674;4.616;2023-10-08T16:50:13;23.00;99.90
20773;DHT22;10546;50.674;4.616;2023-10-08T16:52:39;22.90;99.90
20773;DHT22;10546;50.674;4.616;2023-10-08T16:55:05;22.70;99.90
20773;DHT22;10546;50.674;4.616;2023-10-08T16:57:31;22.70;99.90
20773;DHT22;10546;50.674;4.616;2023-10-08T16:59:57;22.60;99.90
20773;DHT22;10546;50.674;4.616;2023-10-08T17:02:23;22.60;99.90
20773;DHT22;10546;50.674;4.616;2023-10-08T17:04:49;22.50;99.90
20773;DHT22;10546;50.674;4.616;2023-10-08T17:07:14;22.50;99.90
20773;DHT22;10546;50.674;4.616;2023-10-08T17:09:43;22.30;99.90
20773;DHT22;10546;50.674;4.616;2023-10-08T17:12:09;22.30;99.90
20773;DHT22;10546;50.674;4.616;2023-10-08T17:14:35;22.20;99.90
20773;DHT22;10546;50.674;4.616;2023-10-08T17:17:01;22.10;99.90
20773;DHT22;10546;50.674;4.616;2023-10-08T17:19:30;22.00;99.90
20773;DHT22;10546;50.674;4.616;2023-10-08T17:21:56;21.80;99.90
20773;DHT22;10546;50.674;4.616;2023-10-08T17:24:22;21.80;99.90
20773;DHT22;10546;50.674;4.616;2023-10-08T17:26:48;21.70;99.90
20773;DHT22;10546;50.674;4.616;2023-10-08T17:29:15;21.70;99.90
20773;DHT22;10546;50.674;4.616;2023-10-08T17:31:43;21.70;99.90
20773;DHT22;10546;50.674;4.616;2023-10-08T17:34:11;21.60;99.90
20773;DHT22;10546;50.674;4.616;2023-10-08T17:36:39;21.50;99.90
20773;DHT22;10546;50.674;4.616;2023-10-08T17:39:05;21.40;99.90
20773;DHT22;10546;50.674;4.616;2023-10-08T17:41:37;21.30;99.90
20773;DHT22;10546;50.674;4.616;2023-10-08T17:44:04;21.20;99.90
20773;DHT22;10546;50.674;4.616;2023-10-08T17:46:32;21.10;99.90
20773;DHT22;10546;50.674;4.616;2023-10-08T17:48:58;21.00;99.90
20773;DHT22;10546;50.674;4.616;2023-10-08T17:51:24;21.00;99.90
20773;DHT22;10546;50.674;4.616;2023-10-08T17:53:51;20.90;99.90
20773;DHT22;10546;50.674;4.616;2023-10-08T17:56:17;20.80;99.90
20773;DHT22;10546;50.674;4.616;2023-10-08T17:58:43;20.80;99.90
20773;DHT22;10546;50.674;4.616;2023-10-08T18:01:10;20.70;99.90
20773;DHT22;10546;50.674;4.616;2023-10-08T18:03:40;20.60;99.90
20773;DHT22;10546;50.674;4.616;2023-10-08T18:06:10;20.50;99.90
20773;DHT22;10546;50.674;4.616;2023-10-08T18:08:37;20.50;99.90
20773;DHT22;10546;50.674;4.616;2023-10-08T18:11:04;20.40;99.90
20773;DHT22;10546;50.674;4.616;2023-10-08T18:13:30;20.30;99.90
20773;DHT22;10546;50.674;4.616;2023-10-08T18:15:59;20.30;99.90
20773;DHT22;10546;50.674;4.616;2023-10-08T18:18:24;20.20;99.90
20773;DHT22;10546;50.674;4.616;2023-10-08T18:20:57;20.10;99.90
20773;DHT22;10546;50.674;4.616;2023-10-08T18:23:24;20.10;99.90
20773;DHT22;10546;50.674;4.616;2023-10-08T18:25:50;20.10;99.90
20773;DHT22;10546;50.674;4.616;2023-10-08T18:28:20;20.00;99.90
20773;DHT22;10546;50.674;4.616;2023-10-08T18:30:45;20.00;99.90
20773;DHT22;10546;50.674;4.616;2023-10-08T18:33:11;19.90;99.90
20773;DHT22;10546;50.674;4.616;2023-10-08T18:35:40;19.90;99.90
20773;DHT22;10546;50.674;4.616;2023-10-08T18:38:06;19.80;99.90
20773;DHT22;10546;50.674;4.616;2023-10-08T18:40:38;19.80;99.90
20773;DHT22;10546;50.674;4.616;2023-10-08T18:43:04;19.80;99.90
20773;DHT22;10546;50.674;4.616;2023-10-08T18:45:33;19.90;99.90
20773;DHT22;10546;50.674;4.616;2023-10-08T18:47:59;19.90;99.90
20773;DHT22;10546;50.674;4.616;2023-10-08T18:50:25;19.80;99.90
20773;DHT22;10546;50.674;4.616;2023-10-08T18:52:50;19.70;99.90
20773;DHT22;10546;50.674;4.616;2023-10-08T18:55:17;19.70;99.90
20773;DHT22;10546;50.674;4.616;2023-10-08T18:57:46;19.60;99.90
20773;DHT22;10546;50.674;4.616;2023-10-08T19:00:17;19.60;99.90
20773;DHT22;10546;50.674;4.616;2023-10-08T19:02:43;19.60;99.90
20773;DHT22;10546;50.674;4.616;2023-10-08T19:05:10;19.60;99.90
20773;DHT22;10546;50.674;4.616;2023-10-08T19:07:37;19.50;99.90
20773;DHT22;10546;50.674;4.616;2023-10-08T19:10:04;19.50;99.90
20773;DHT22;10546;50.674;4.616;2023-10-08T19:12:33;19.40;99.90
20773;DHT22;10546;50.674;4.616;2023-10-08T19:15:02;19.50;99.90
20773;DHT22;10546;50.674;4.616;2023-10-08T19:17:29;19.40;99.90
20773;DHT22;10546;50.674;4.616;2023-10-08T19:19:55;19.40;99.90
20773;DHT22;10546;50.674;4.616;2023-10-08T19:22:21;19.40;99.90
20773;DHT22;10546;50.674;4.616;2023-10-08T19:24:46;19.40;99.90
20773;DHT22;10546;50.674;4.616;2023-10-08T19:27:12;19.30;99.90
20773;DHT22;10546;50.674;4.616;2023-10-08T19:29:38;19.20;99.90
20773;DHT22;10546;50.674;4.616;2023-10-08T19:32:05;19.20;99.90
20773;DHT22;10546;50.674;4.616;2023-10-08T19:34:32;19.20;99.90
20773;DHT22;10546;50.674;4.616;2023-10-08T19:36:57;19.10;99.90
20773;DHT22;10546;50.674;4.616;2023-10-08T19:39:24;19.00;99.90
20773;DHT22;10546;50.674;4.616;2023-10-08T19:41:50;19.00;99.90
20773;DHT22;10546;50.674;4.616;2023-10-08T19:44:17;19.00;99.90
20773;DHT22;10546;50.674;4.616;2023-10-08T19:46:42;19.00;99.90
20773;DHT22;10546;50.674;4.616;2023-10-08T19:49:10;19.00;99.90
20773;DHT22;10546;50.674;4.616;2023-10-08T19:51:37;19.00;99.90
20773;DHT22;10546;50.674;4.616;2023-10-08T19:54:03;19.00;99.90
20773;DHT22;10546;50.674;4.616;2023-10-08T19:56:29;19.00;99.90
20773;DHT22;10546;50.674;4.616;2023-10-08T19:58:54;18.90;99.90
20773;DHT22;10546;50.674;4.616;2023-10-08T20:01:20;18.90;99.90
20773;DHT22;10546;50.674;4.616;2023-10-08T20:03:46;18.90;99.90
20773;DHT22;10546;50.674;4.616;2023-10-08T20:06:12;19.00;99.90
20773;DHT22;10546;50.674;4.616;2023-10-08T20:08:38;18.90;99.90
20773;DHT22;10546;50.674;4.616;2023-10-08T20:11:04;18.90;99.90
20773;DHT22;10546;50.674;4.616;2023-10-08T20:13:30;18.80;99.90
20773;DHT22;10546;50.674;4.616;2023-10-08T20:15:56;18.90;99.90
20773;DHT22;10546;50.674;4.616;2023-10-08T20:18:22;18.90;99.90
20773;DHT22;10546;50.674;4.616;2023-10-08T20:20:52;18.80;99.90
20773;DHT22;10546;50.674;4.616;2023-10-08T20:23:21;18.70;99.90
20773;DHT22;10546;50.674;4.616;2023-10-08T20:25:48;18.70;99.90
20773;DHT22;10546;50.674;4.616;2023-10-08T20:28:19;18.70;99.90
20773;DHT22;10546;50.674;4.616;2023-10-08T20:30:48;18.60;99.90
20773;DHT22;10546;50.674;4.616;2023-10-08T20:33:15;18.60;99.90
20773;DHT22;10546;50.674;4.616;2023-10-08T20:35:44;18.60;99.90
20773;DHT22;10546;50.674;4.616;2023-10-08T20:38:10;18.70;99.90
20773;DHT22;10546;50.674;4.616;2023-10-08T20:40:40;18.60;99.90
20773;DHT22;10546;50.674;4.616;2023-10-08T20:43:10;18.60;99.90
20773;DHT22;10546;50.674;4.616;2023-10-08T20:45:40;18.50;99.90
20773;DHT22;10546;50.674;4.616;2023-10-08T20:48:12;18.40;99.90
20773;DHT22;10546;50.674;4.616;2023-10-08T20:50:39;18.30;99.90
20773;DHT22;10546;50.674;4.616;2023-10-08T20:53:15;18.30;99.90
20773;DHT22;10546;50.674;4.616;2023-10-08T20:55:44;18.30;99.90
20773;DHT22;10546;50.674;4.616;2023-10-08T20:58:16;18.30;99.90
20773;DHT22;10546;50.674;4.616;2023-10-08T21:00:45;18.40;99.90
20773;DHT22;10546;50.674;4.616;2023-10-08T21:03:12;18.40;99.90
20773;DHT22;10546;50.674;4.616;2023-10-08T21:05:40;18.40;99.90
20773;DHT22;10546;50.674;4.616;2023-10-08T21:08:06;18.40;99.90
20773;DHT22;10546;50.674;4.616;2023-10-08T21:10:36;18.30;99.90
20773;DHT22;10546;50.674;4.616;2023-10-08T21:13:03;18.30;99.90
20773;DHT22;10546;50.674;4.616;2023-10-08T21:15:32;18.30;99.90
20773;DHT22;10546;50.674;4.616;2023-10-08T21:18:02;18.30;99.90
20773;DHT22;10546;50.674;4.616;2023-10-08T21:20:30;18.40;99.90
20773;DHT22;10546;50.674;4.616;2023-10-08T21:22:57;18.30;99.90
20773;DHT22;10546;50.674;4.616;2023-10-08T21:25:24;18.40;99.90
20773;DHT22;10546;50.674;4.616;2023-10-08T21:27:53;18.30;99.90
20773;DHT22;10546;50.674;4.616;2023-10-08T21:30:24;18.30;99.90
20773;DHT22;10546;50.674;4.616;2023-10-08T21:32:53;18.30;99.90
20773;DHT22;10546;50.674;4.616;2023-10-08T21:35:20;18.30;99.90
20773;DHT22;10546;50.674;4.616;2023-10-08T21:37:47;18.20;99.90
20773;DHT22;10546;50.674;4.616;2023-10-08T21:40:13;18.10;99.90
20773;DHT22;10546;50.674;4.616;2023-10-08T21:42:41;18.10;99.90
20773;DHT22;10546;50.674;4.616;2023-10-08T21:45:12;18.20;99.90
20773;DHT22;10546;50.674;4.616;2023-10-08T21:47:39;18.10;99.90
20773;DHT22;10546;50.674;4.616;2023-10-08T21:50:08;18.00;99.90
20773;DHT22;10546;50.674;4.616;2023-10-08T21:52:40;18.00;99.90
20773;DHT22;10546;50.674;4.616;2023-10-08T21:55:10;18.10;99.90
20773;DHT22;10546;50.674;4.616;2023-10-08T21:57:37;18.00;99.90
20773;DHT22;10546;50.674;4.616;2023-10-08T22:00:07;18.00;99.90
20773;DHT22;10546;50.674;4.616;2023-10-08T22:02:50;18.00;99.90
